createdAt,value
2022-10-17T00:01:07.358Z,9.20
2022-10-17T00:03:38.443Z,7.93
2022-10-17T00:06:08.182Z,6.57
2022-10-17T00:08:37.087Z,8.25
2022-10-17T00:11:07.582Z,9.00
2022-10-17T00:13:36.164Z,7.15
2022-10-17T00:16:04.086Z,9.57
2022-10-17T00:18:32.018Z,9.75
2022-10-17T00:21:01.508Z,9.05
2022-10-17T00:23:30.402Z,10.65
2022-10-17T00:26:02.612Z,7.95
2022-10-17T00:28:32.369Z,9.23
2022-10-17T00:31:03.004Z,9.30
2022-10-17T00:33:31.877Z,7.60
2022-10-17T00:36:09.709Z,7.68
2022-10-17T00:38:38.284Z,7.25
2022-10-17T00:41:06.905Z,7.13
2022-10-17T00:43:50.655Z,8.05
2022-10-17T00:46:18.606Z,7.22
2022-10-17T00:48:47.242Z,9.30
2022-10-17T00:51:18.412Z,8.98
2022-10-17T00:53:46.558Z,6.80
2022-10-17T00:56:14.793Z,6.90
2022-10-17T00:58:42.815Z,7.95
2022-10-17T01:01:10.909Z,7.40
2022-10-17T01:03:39.068Z,6.90
2022-10-17T01:06:07.161Z,8.90
2022-10-17T01:08:36.579Z,7.13
2022-10-17T01:11:14.619Z,7.20
2022-10-17T01:13:50.644Z,5.93
2022-10-17T01:16:28.095Z,6.60
2022-10-17T01:19:03.958Z,5.85
2022-10-17T01:21:38.685Z,9.38
2022-10-17T01:24:37.994Z,5.55
2022-10-17T01:27:30.476Z,4.95
2022-10-17T01:30:17.655Z,4.93
2022-10-17T01:32:50.644Z,7.78
2022-10-17T01:35:24.847Z,5.45
2022-10-17T01:38:00.204Z,5.50
2022-10-17T01:40:32.577Z,7.00
2022-10-17T01:43:07.301Z,10.27
2022-10-17T01:45:41.790Z,6.80
2022-10-17T01:48:17.360Z,7.72
2022-10-17T01:50:50.355Z,6.10
2022-10-17T01:53:23.501Z,6.57
2022-10-17T01:55:55.124Z,6.65
2022-10-17T01:58:29.908Z,8.13
2022-10-17T02:01:00.472Z,7.90
2022-10-17T02:03:31.032Z,7.25
2022-10-17T02:05:58.936Z,6.20
2022-10-17T02:08:29.200Z,5.35
2022-10-17T02:11:01.995Z,6.18
2022-10-17T02:13:46.010Z,7.78
2022-10-17T02:16:26.007Z,7.20
2022-10-17T02:19:16.353Z,7.63
2022-10-17T02:21:51.101Z,8.00
2022-10-17T02:24:28.906Z,8.38
2022-10-17T02:27:04.830Z,7.82
2022-10-17T02:29:37.905Z,5.03
2022-10-17T02:32:10.302Z,7.07
2022-10-17T02:37:11.038Z,4.82
2022-10-17T02:39:40.280Z,4.93
2022-10-17T02:42:12.385Z,9.00
2022-10-17T02:44:44.245Z,6.15
2022-10-17T02:47:19.154Z,6.63
2022-10-17T02:49:52.444Z,6.55
2022-10-17T02:52:28.555Z,6.95
2022-10-17T02:55:02.149Z,6.20
2022-10-17T02:57:35.317Z,7.75
2022-10-17T03:00:09.134Z,7.95
2022-10-17T03:02:42.448Z,8.93
2022-10-17T03:05:13.325Z,7.15
2022-10-17T03:07:43.543Z,8.45
2022-10-17T03:10:11.605Z,5.80
2022-10-17T03:12:39.819Z,5.70
2022-10-17T03:15:08.815Z,5.97
2022-10-17T03:17:37.012Z,8.45
2022-10-17T03:20:05.765Z,8.98
2022-10-17T03:22:35.407Z,5.53
2022-10-17T03:25:03.342Z,5.70
2022-10-17T03:27:31.763Z,5.40
2022-10-17T03:30:00.162Z,6.47
2022-10-17T03:32:28.096Z,5.10
2022-10-17T03:34:56.006Z,6.63
2022-10-17T03:37:23.916Z,5.47
2022-10-17T03:39:53.312Z,4.72
2022-10-17T03:42:21.162Z,6.18
2022-10-17T03:44:49.105Z,7.72
2022-10-17T03:47:17.008Z,5.13
2022-10-17T03:49:44.944Z,6.30
2022-10-17T03:52:13.285Z,6.20
2022-10-17T03:54:41.370Z,5.68
2022-10-17T03:57:10.698Z,8.10
2022-10-17T03:59:38.610Z,5.65
2022-10-17T04:02:06.470Z,5.68
2022-10-17T04:04:34.413Z,6.50
2022-10-17T04:07:02.469Z,7.47
2022-10-17T04:09:30.405Z,7.55
2022-10-17T04:11:58.272Z,7.55
2022-10-17T04:14:27.630Z,5.95
2022-10-17T04:16:55.776Z,10.80
2022-10-17T04:19:23.769Z,7.45
2022-10-17T04:21:51.663Z,11.95
2022-10-17T04:24:19.898Z,6.53
2022-10-17T04:26:50.819Z,6.90
2022-10-17T04:29:19.146Z,8.50
2022-10-17T04:31:49.797Z,7.25
2022-10-17T04:34:17.661Z,8.35
2022-10-17T04:36:45.693Z,7.90
2022-10-17T04:41:46.544Z,8.65
2022-10-17T04:44:14.572Z,9.07
2022-10-17T04:46:42.487Z,7.40
2022-10-17T04:49:11.756Z,9.40
2022-10-17T04:51:40.386Z,8.07
2022-10-17T04:54:08.631Z,7.63
2022-10-17T04:56:36.557Z,9.65
2022-10-17T04:59:04.510Z,8.98
2022-10-17T05:01:32.438Z,8.45
2022-10-17T05:04:00.393Z,6.25
2022-10-17T05:06:29.725Z,6.13
2022-10-17T05:08:59.028Z,5.75
2022-10-17T05:11:28.252Z,8.80
2022-10-17T05:13:58.217Z,5.65
2022-10-17T05:16:27.069Z,8.57
2022-10-17T05:18:57.132Z,7.50
2022-10-17T05:21:27.073Z,6.00
2022-10-17T05:23:56.568Z,7.78
2022-10-17T05:26:24.637Z,8.98
2022-10-17T05:28:53.183Z,7.03
2022-10-17T05:31:23.893Z,7.57
2022-10-17T05:33:51.796Z,7.13
2022-10-17T05:36:19.706Z,9.50
2022-10-17T05:38:51.107Z,7.25
2022-10-17T05:41:21.048Z,8.05
2022-10-17T05:43:50.192Z,7.32
2022-10-17T05:46:18.595Z,14.40
2022-10-17T05:48:46.572Z,11.10
2022-10-17T05:51:14.536Z,7.30
2022-10-17T05:53:43.170Z,12.02
2022-10-17T05:56:12.832Z,7.03
2022-10-17T05:58:50.308Z,9.27
2022-10-17T06:01:19.125Z,7.65
2022-10-17T06:03:47.056Z,16.90
2022-10-17T06:06:16.562Z,5.85
2022-10-17T06:08:45.132Z,6.82
2022-10-17T06:11:13.904Z,9.77
2022-10-17T06:13:43.359Z,11.02
2022-10-17T06:16:11.274Z,6.38
2022-10-17T06:18:39.276Z,6.18
2022-10-17T06:21:09.501Z,7.18
2022-10-17T06:23:37.702Z,8.98
2022-10-17T06:26:08.520Z,9.45
2022-10-17T06:28:37.366Z,15.00
2022-10-17T06:31:08.342Z,12.63
2022-10-17T06:33:36.496Z,13.65
2022-10-17T06:36:05.977Z,10.90
2022-10-17T06:38:35.208Z,12.95
2022-10-17T06:41:08.685Z,15.05
2022-10-17T06:43:39.991Z,10.43
2022-10-17T06:46:09.283Z,8.00
2022-10-17T06:48:37.253Z,10.25
2022-10-17T06:51:06.605Z,8.57
2022-10-17T06:53:38.254Z,9.85
2022-10-17T06:56:07.876Z,8.27
2022-10-17T06:58:37.747Z,9.20
2022-10-17T07:03:43.634Z,7.63
2022-10-17T07:06:11.918Z,8.73
2022-10-17T07:08:43.203Z,8.73
2022-10-17T07:11:12.566Z,10.95
2022-10-17T07:13:41.188Z,13.23
2022-10-17T07:16:09.626Z,10.82
2022-10-17T07:18:41.897Z,11.95
2022-10-17T07:21:10.618Z,11.55
2022-10-17T07:23:39.832Z,11.50
2022-10-17T07:26:10.661Z,10.27
2022-10-17T07:28:40.774Z,9.82
2022-10-17T07:31:10.941Z,11.10
2022-10-17T07:33:43.124Z,10.52
2022-10-17T07:36:11.136Z,12.10
2022-10-17T07:38:39.733Z,8.32
2022-10-17T07:41:09.617Z,8.55
2022-10-17T07:43:39.885Z,11.13
2022-10-17T07:46:08.341Z,11.35
2022-10-17T07:48:36.387Z,9.68
2022-10-17T07:51:07.497Z,10.68
2022-10-17T07:53:38.602Z,10.80
2022-10-17T07:56:07.781Z,9.45
2022-10-17T07:58:38.944Z,10.98
2022-10-17T08:01:10.851Z,8.77
2022-10-17T08:03:42.979Z,10.05
2022-10-17T08:06:13.014Z,12.93
2022-10-17T08:08:41.325Z,11.02
2022-10-17T08:11:11.353Z,8.93
2022-10-17T08:13:40.282Z,7.07
2022-10-17T08:16:13.523Z,9.82
2022-10-17T08:18:43.146Z,9.93
2022-10-17T08:21:13.220Z,9.48
2022-10-17T08:23:41.741Z,9.00
2022-10-17T08:26:13.150Z,11.50
2022-10-17T08:28:41.780Z,10.48
2022-10-17T08:31:12.381Z,5.97
2022-10-17T08:33:40.816Z,5.18
2022-10-17T08:36:09.770Z,9.43
2022-10-17T08:38:43.055Z,5.20
2022-10-17T08:41:20.721Z,4.53
2022-10-17T08:43:59.750Z,3.80
2022-10-17T08:46:32.246Z,5.47
2022-10-17T08:49:02.313Z,4.53
2022-10-17T08:51:33.535Z,4.75
2022-10-17T08:54:09.339Z,5.00
2022-10-17T08:56:49.004Z,3.88
2022-10-17T08:59:21.063Z,5.15
2022-10-17T09:01:53.638Z,5.00
2022-10-17T09:04:46.574Z,3.72
2022-10-17T09:07:22.054Z,3.30
2022-10-17T09:10:00.909Z,5.65
2022-10-17T09:12:37.203Z,6.22
2022-10-17T09:15:26.502Z,5.50
2022-10-17T09:17:58.143Z,4.90
2022-10-17T09:20:32.984Z,8.10
2022-10-17T09:23:04.851Z,4.05
2022-10-17T09:25:42.435Z,3.45
2022-10-17T09:28:17.087Z,4.30
2022-10-17T09:30:47.368Z,7.30
2022-10-17T09:33:28.658Z,6.30
2022-10-17T09:36:05.827Z,4.47
2022-10-17T09:38:40.499Z,4.60
2022-10-17T09:41:43.028Z,7.45
2022-10-17T09:44:16.399Z,4.88
2022-10-17T09:46:54.854Z,3.22
2022-10-17T09:49:31.532Z,4.30
2022-10-17T09:52:00.253Z,6.55
2022-10-17T09:54:35.051Z,9.45
2022-10-17T09:57:06.947Z,9.77
2022-10-17T09:59:37.697Z,5.68
2022-10-17T10:02:11.430Z,4.85
2022-10-17T10:05:09.025Z,3.38
2022-10-17T10:07:39.596Z,2.80
2022-10-17T10:10:24.383Z,3.55
2022-10-17T10:13:07.162Z,5.78
2022-10-17T10:15:38.795Z,4.25
2022-10-17T10:18:33.246Z,6.32
2022-10-17T10:21:07.503Z,4.07
2022-10-17T10:23:39.932Z,3.50
2022-10-17T10:26:21.573Z,3.95
2022-10-17T10:29:03.116Z,2.97
2022-10-17T10:31:34.444Z,5.40
2022-10-17T10:34:12.456Z,4.22
2022-10-17T10:36:46.578Z,5.40
2022-10-17T10:39:27.105Z,4.90
2022-10-17T10:41:55.369Z,4.38
2022-10-17T10:44:27.314Z,4.90
2022-10-17T10:47:24.318Z,5.18
2022-10-17T10:49:54.368Z,5.35
2022-10-17T10:52:31.955Z,5.38
2022-10-17T10:55:15.294Z,4.05
2022-10-17T10:57:46.020Z,4.10
2022-10-17T11:00:19.189Z,4.55
2022-10-17T11:02:55.917Z,3.20
2022-10-17T11:05:28.923Z,2.80
2022-10-17T11:08:07.488Z,3.08
2022-10-17T11:10:42.709Z,2.20
2022-10-17T11:13:14.815Z,2.50
2022-10-17T11:15:48.081Z,2.25
2022-10-17T11:18:25.434Z,3.40
2022-10-17T11:20:58.106Z,2.67
2022-10-17T11:23:31.270Z,5.40
2022-10-17T11:26:05.547Z,2.03
2022-10-17T11:28:36.432Z,1.20
2022-10-17T11:31:11.579Z,1.13
2022-10-17T11:33:46.541Z,3.22
2022-10-17T11:36:23.657Z,5.07
2022-10-17T11:38:54.898Z,2.80
2022-10-17T11:43:58.034Z,2.63
2022-10-17T11:46:30.246Z,2.58
2022-10-17T11:49:06.266Z,2.50
2022-10-17T11:52:00.301Z,2.35
2022-10-17T11:54:36.040Z,2.63
2022-10-17T11:57:17.496Z,2.03
2022-10-17T12:00:04.869Z,2.03
2022-10-17T12:02:45.727Z,1.80
2022-10-17T12:05:26.162Z,4.63
2022-10-17T12:08:00.684Z,2.35
2022-10-17T12:10:38.440Z,3.80
2022-10-17T12:13:45.455Z,3.40
2022-10-17T12:16:39.803Z,8.38
2022-10-17T12:19:37.362Z,2.40
2022-10-17T12:22:20.003Z,3.15
2022-10-17T12:24:59.906Z,2.95
2022-10-17T12:27:43.520Z,2.58
2022-10-17T12:30:21.254Z,2.45
2022-10-17T12:33:07.092Z,2.10
2022-10-17T12:35:38.909Z,3.47
2022-10-17T12:41:05.531Z,4.35
2022-10-17T12:43:57.184Z,3.20
2022-10-17T12:49:45.493Z,4.35
2022-10-17T12:52:26.776Z,3.33
2022-10-17T12:55:12.103Z,3.85
2022-10-17T12:57:45.394Z,4.93
2022-10-17T13:00:22.310Z,3.50
2022-10-17T13:02:53.233Z,5.97
2022-10-17T13:05:28.002Z,2.40
2022-10-17T13:08:00.221Z,3.55
2022-10-17T13:10:31.877Z,6.35
2022-10-17T13:13:08.159Z,5.35
2022-10-17T13:15:37.776Z,2.58
2022-10-17T13:18:06.339Z,3.63
2022-10-17T13:20:34.608Z,4.25
2022-10-17T13:23:04.281Z,3.15
2022-10-17T13:25:34.599Z,4.97
2022-10-17T13:28:07.436Z,3.55
2022-10-17T13:30:37.256Z,3.58
2022-10-17T13:33:17.146Z,4.25
2022-10-17T13:35:59.841Z,3.70
2022-10-17T13:38:34.181Z,2.05
2022-10-17T13:41:30.454Z,5.38
2022-10-17T13:43:54.089Z,3.35
2022-10-17T13:46:37.221Z,3.03
2022-10-17T13:49:13.547Z,2.22
2022-10-17T13:51:44.942Z,3.80
2022-10-17T13:54:31.638Z,6.43
2022-10-17T13:57:01.701Z,3.03
2022-10-17T13:59:35.149Z,4.78
2022-10-17T14:02:03.452Z,3.30
2022-10-17T14:04:44.791Z,3.67
2022-10-17T14:07:27.960Z,2.33
2022-10-17T14:09:58.694Z,4.75
2022-10-17T14:12:26.732Z,3.83
2022-10-17T14:15:10.102Z,3.50
2022-10-17T14:17:38.929Z,3.70
2022-10-17T14:20:57.110Z,3.03
2022-10-17T14:23:21.593Z,4.00
2022-10-17T14:25:47.618Z,5.47
2022-10-17T14:28:18.338Z,4.70
2022-10-17T14:31:03.202Z,4.95
2022-10-17T14:33:33.365Z,4.13
2022-10-17T14:36:03.645Z,4.97
2022-10-17T14:38:31.912Z,4.85
2022-10-17T14:41:37.466Z,3.60
2022-10-17T14:43:59.183Z,3.30
2022-10-17T14:46:28.230Z,3.13
2022-10-17T14:48:59.920Z,5.05
2022-10-17T14:51:32.474Z,4.82
2022-10-17T14:54:21.889Z,3.05
2022-10-17T14:56:54.283Z,4.53
2022-10-17T14:59:52.081Z,5.25
2022-10-17T15:02:13.693Z,3.50
2022-10-17T15:04:41.781Z,2.90
2022-10-17T15:07:14.175Z,5.45
2022-10-17T15:09:42.699Z,7.32
2022-10-17T15:12:16.773Z,3.92
2022-10-17T15:14:45.002Z,2.63
2022-10-17T15:17:18.537Z,5.25
2022-10-17T15:19:46.498Z,5.57
2022-10-17T15:22:19.941Z,5.93
2022-10-17T15:24:48.364Z,6.25
2022-10-17T15:27:21.155Z,3.83
2022-10-17T15:29:52.842Z,5.80
2022-10-17T15:32:20.779Z,7.43
2022-10-17T15:34:48.729Z,5.40
2022-10-17T15:37:20.859Z,3.75
2022-10-17T15:39:54.312Z,5.15
2022-10-17T15:42:27.959Z,4.15
2022-10-17T15:44:56.186Z,4.50
2022-10-17T15:47:28.037Z,4.15
2022-10-17T15:52:25.406Z,6.05
2022-10-17T15:54:54.183Z,7.57
2022-10-17T15:57:29.231Z,6.32
2022-10-17T15:59:59.776Z,5.22
2022-10-17T16:02:28.144Z,2.53
2022-10-17T16:04:58.197Z,5.88
2022-10-17T16:07:26.121Z,4.38
2022-10-17T16:09:54.055Z,4.93
2022-10-17T16:12:35.673Z,4.18
2022-10-17T16:15:03.962Z,4.60
2022-10-17T16:17:34.762Z,4.35
2022-10-17T16:20:02.692Z,4.35
2022-10-17T16:22:33.598Z,9.77
2022-10-17T16:25:09.260Z,4.68
2022-10-17T16:27:39.162Z,4.90
2022-10-17T16:30:08.873Z,6.82
2022-10-17T16:32:36.883Z,5.22
2022-10-17T16:35:05.155Z,5.38
2022-10-17T16:37:33.220Z,5.35
2022-10-17T16:40:04.376Z,5.18
2022-10-17T16:42:32.739Z,6.68
2022-10-17T16:45:02.521Z,7.07
2022-10-17T16:47:30.432Z,6.78
2022-10-17T16:49:58.483Z,5.22
2022-10-17T16:52:26.379Z,8.52
2022-10-17T16:54:56.754Z,7.72
2022-10-17T16:57:24.700Z,9.18
2022-10-17T16:59:54.690Z,4.93
2022-10-17T17:02:23.958Z,5.28
2022-10-17T17:04:51.836Z,5.50
2022-10-17T17:07:20.825Z,5.82
2022-10-17T17:09:49.052Z,6.55
2022-10-17T17:12:17.100Z,8.25
2022-10-17T17:14:44.987Z,5.55
2022-10-17T17:17:19.677Z,5.25
2022-10-17T17:19:59.812Z,5.75
2022-10-17T17:22:27.722Z,6.50
2022-10-17T17:24:55.695Z,6.85
2022-10-17T17:27:25.179Z,9.32
2022-10-17T17:29:53.114Z,6.82
2022-10-17T17:32:21.005Z,7.72
2022-10-17T17:34:48.934Z,7.55
2022-10-17T17:37:18.381Z,6.55
2022-10-17T17:39:46.343Z,5.60
2022-10-17T17:42:14.238Z,7.18
2022-10-17T17:44:42.182Z,7.40
2022-10-17T17:47:10.085Z,7.95
2022-10-17T17:49:38.153Z,7.45
2022-10-17T17:52:06.251Z,6.95
2022-10-17T17:54:40.766Z,8.80
2022-10-17T17:57:09.138Z,8.85
2022-10-17T17:59:38.557Z,9.88
2022-10-17T18:02:06.842Z,8.27
2022-10-17T18:04:35.037Z,10.65
2022-10-17T18:07:02.965Z,9.88
2022-10-17T18:09:38.211Z,14.32
2022-10-17T18:12:06.606Z,9.52
2022-10-17T18:14:34.543Z,9.80
2022-10-17T18:17:02.628Z,7.50
2022-10-17T18:19:32.731Z,8.82
2022-10-17T18:22:00.941Z,10.82
2022-10-17T18:24:28.913Z,8.00
2022-10-17T18:26:59.800Z,7.65
2022-10-17T18:29:29.384Z,7.25
2022-10-17T18:32:00.566Z,11.02
2022-10-17T18:34:28.768Z,10.43
2022-10-17T18:36:57.527Z,7.63
2022-10-17T18:39:25.700Z,11.15
2022-10-17T18:41:53.762Z,8.65
2022-10-17T18:44:23.121Z,10.43
2022-10-17T18:46:51.469Z,9.30
2022-10-17T18:49:23.093Z,13.05
2022-10-17T18:51:51.086Z,12.40
2022-10-17T18:54:21.559Z,9.00
2022-10-17T18:56:52.067Z,9.88
2022-10-17T18:59:22.018Z,11.98
2022-10-17T19:01:53.150Z,13.07
2022-10-17T19:04:21.230Z,12.10
2022-10-17T19:06:49.291Z,10.23
2022-10-17T19:09:19.915Z,11.95
2022-10-17T19:11:47.836Z,11.43
2022-10-17T19:14:15.948Z,9.88
2022-10-17T19:16:47.169Z,12.25
2022-10-17T19:19:17.760Z,13.43
2022-10-17T19:21:47.895Z,11.88
2022-10-17T19:24:21.141Z,11.02
2022-10-17T19:26:50.733Z,15.10
2022-10-17T19:29:19.367Z,10.85
2022-10-17T19:31:49.260Z,15.38
2022-10-17T19:34:19.020Z,11.10
2022-10-17T19:36:47.792Z,15.93
2022-10-17T19:39:18.016Z,11.30
2022-10-17T19:41:48.884Z,13.38
2022-10-17T19:44:17.705Z,11.00
2022-10-17T19:46:46.921Z,10.63
2022-10-17T19:49:17.083Z,12.38
2022-10-17T19:51:45.387Z,12.18
2022-10-17T19:54:15.063Z,10.13
2022-10-17T19:56:43.487Z,18.98
2022-10-17T19:59:13.833Z,12.27
2022-10-17T20:01:42.870Z,12.15
2022-10-17T20:04:12.485Z,12.68
2022-10-17T20:06:42.548Z,9.95
2022-10-17T20:09:17.097Z,9.93
2022-10-17T20:11:48.188Z,10.68
2022-10-17T20:14:16.086Z,14.57
2022-10-17T20:16:49.954Z,11.95
2022-10-17T20:19:17.947Z,9.88
2022-10-17T20:21:47.429Z,11.23
2022-10-17T20:24:17.428Z,13.05
2022-10-17T20:26:46.392Z,15.18
2022-10-17T20:29:16.756Z,10.68
2022-10-17T20:31:46.275Z,10.75
2022-10-17T20:34:15.941Z,9.23
2022-10-17T20:36:44.091Z,10.48
2022-10-17T20:39:14.824Z,16.25
2022-10-17T20:41:43.682Z,9.80
2022-10-17T20:44:12.355Z,12.65
2022-10-17T20:46:45.163Z,10.75
2022-10-17T20:49:22.781Z,11.02
2022-10-17T20:51:50.704Z,11.68
2022-10-17T20:54:25.334Z,12.10
2022-10-17T20:56:53.251Z,14.52
2022-10-17T20:59:21.500Z,12.52
2022-10-17T21:01:49.501Z,10.90
2022-10-17T21:07:05.695Z,11.52
2022-10-17T21:09:35.033Z,14.02
2022-10-17T21:12:05.040Z,11.05
2022-10-17T21:14:33.945Z,11.15
2022-10-17T21:17:05.666Z,10.13
2022-10-17T21:19:35.862Z,11.98
2022-10-17T21:22:03.787Z,14.63
2022-10-17T21:24:32.306Z,13.52
2022-10-17T21:27:02.512Z,7.88
2022-10-17T21:29:32.589Z,9.65
2022-10-17T21:32:00.607Z,14.95
2022-10-17T21:34:28.770Z,9.95
2022-10-17T21:36:56.880Z,13.20
2022-10-17T21:39:26.559Z,13.20
2022-10-17T21:41:54.946Z,8.77
2022-10-17T21:44:29.367Z,12.63
2022-10-17T21:46:57.382Z,10.90
2022-10-17T21:49:26.720Z,10.93
2022-10-17T21:51:54.853Z,13.07
2022-10-17T21:54:23.935Z,8.85
2022-10-17T21:56:53.779Z,9.30
2022-10-17T21:59:21.823Z,8.88
2022-10-17T22:01:51.189Z,15.63
2022-10-17T22:04:20.541Z,13.48
2022-10-17T22:09:21.869Z,13.23
2022-10-17T22:11:53.370Z,18.25
2022-10-17T22:16:51.533Z,9.60
2022-10-17T22:19:21.643Z,11.80
2022-10-17T22:26:46.681Z,13.70
2022-10-17T22:29:15.098Z,14.85
2022-10-17T22:31:43.539Z,12.02
2022-10-17T22:34:14.782Z,12.18
2022-10-17T22:36:42.836Z,13.13
2022-10-17T22:39:11.744Z,12.73
2022-10-17T22:41:39.939Z,9.82
2022-10-17T22:44:08.154Z,12.95
2022-10-17T22:49:04.365Z,12.68
2022-10-17T22:51:33.620Z,12.45
2022-10-17T22:54:01.549Z,10.90
2022-10-17T22:56:29.536Z,14.60
2022-10-17T22:58:57.537Z,10.98
2022-10-17T23:01:26.574Z,11.73
2022-10-17T23:03:54.777Z,11.70
2022-10-17T23:06:23.187Z,8.73
2022-10-17T23:08:52.545Z,12.10
2022-10-17T23:11:21.897Z,10.27
2022-10-17T23:13:49.948Z,14.50
2022-10-17T23:16:18.100Z,14.80
2022-10-17T23:18:46.360Z,12.18
2022-10-17T23:21:14.951Z,9.65
2022-10-17T23:23:42.994Z,10.00
2022-10-17T23:26:13.763Z,9.23
2022-10-17T23:28:42.492Z,12.77
2022-10-17T23:31:15.987Z,9.75
2022-10-17T23:33:45.129Z,10.25
2022-10-17T23:38:43.656Z,9.05
2022-10-17T23:41:13.123Z,10.48
2022-10-17T23:43:41.565Z,8.77
2022-10-17T23:46:09.925Z,13.40
2022-10-17T23:53:35.056Z,10.63
2022-10-17T23:56:03.059Z,11.43
2022-10-17T23:58:32.653Z,13.15
